WIDN/TNJ METAR and TAF weather

Enter ICAO airport designator
Station Type Date Time Source
WIDN METAR 2021/05/12 10:30 UTC NOAA

WIDN 121030Z 17002KT 9999 SCT017 29/26 Q1006 NOSIG


Station Type Date Time Source
WIDN Decoded METAR 2021/05/12 10:30 UTC NOAA

Station name not available
May 12, 2021 - 06:30 AM EDT / 2021.05.12 1030 UTC
Wind: from the S (170 degrees) at 2 MPH (2 KT):0
Visibility: greater than 7 mile(s):0
Sky conditions: partly cloudy
Temperature: 84 F (29 C)
Dew Point: 78 F (26 C)
Relative Humidity: 83%
Pressure (altimeter): 29.71 in. Hg (1006 hPa)
ob: WIDN 121030Z 17002KT 9999 SCT017 29/26 Q1006 NOSIG
cycle: 10

Station Type Date Time Source
WIDN TAF 2011/04/08 06:00 UTC NOAA

TAF WIDN 080500Z 0806/0818 04010KT 9000 SCT020
BECMG 35010KT

Example: see airport list